Terminal Aerodrome Forecast
Issued by NWS Melbourne, FL

Home | Current Version | Previous Version | Text Only | Print | Product List | Glossary On
Versions: 1 2 3 4 5 6 7 8 9 10 11 12 13 14 15 16 17 18 19 20 21 22 23 24 25 26
000
FTUS42 KMLB 261723
TAFDAB
TAF
KDAB 261723Z 2618/2718 19010KT P6SM VCTS SCT035CB OVC080
      TEMPO 2618/2619 3SM SHRA BKN035
     FM262100 21009KT P6SM VCTS SCT035CB BKN060 BKN250
     FM270000 21004KT P6SM VCSH SCT040 OVC080
     FM270400 21007KT P6SM SCT030 OVC100
     FM271400 23014G20KT P6SM VCSH SCT025 OVC060=

USA.gov is the U.S. government's official web portal to all federal, state and local government web resources and services.